Time;durP1;ratioP1;P1;durP2;ratioP2;P2;SDS_P1;SDS_P2;PMS_P1;PMS_P2;Temp;Humidity;BMP_temperature;BMP_pressure;BME280_temperature;BME280_humidity;BME280_pressure;Samples;Min_cycle;Max_cycle;Signal;HPM_P1;HPM_P2
2021/12/18 00:02:06;;;;;;;7.30;4.47;;;8.30;99.90;;;;;;5015210;28;20037;-68
2021/12/18 00:04:32;;;;;;;8.07;4.88;;;8.20;99.90;;;;;;5032753;28;20064;-68
2021/12/18 00:06:57;;;;;;;9.18;5.15;;;8.30;99.90;;;;;;5032732;28;20038;-68
2021/12/18 00:09:25;;;;;;;8.63;5.10;;;8.20;99.90;;;;;;5032836;28;20516;-68
2021/12/18 00:11:51;;;;;;;8.35;5.13;;;8.20;99.90;;;;;;5031345;28;20437;-68
2021/12/18 00:14:17;;;;;;;6.63;4.50;;;8.20;99.90;;;;;;5032130;28;20045;-68
2021/12/18 00:16:43;;;;;;;7.22;4.38;;;8.20;99.90;;;;;;5031238;28;20086;-68
2021/12/18 00:19:08;;;;;;;6.28;4.10;;;8.10;99.90;;;;;;5031043;28;20124;-68
2021/12/18 00:21:36;;;;;;;6.47;4.43;;;8.10;99.90;;;;;;5031541;28;20041;-68
2021/12/18 00:24:07;;;;;;;7.47;4.30;;;8.10;99.90;;;;;;5031321;28;20041;-68
2021/12/18 00:26:33;;;;;;;7.35;4.68;;;8.10;99.90;;;;;;5014705;28;20045;-68
2021/12/18 00:29:00;;;;;;;7.45;4.22;;;8.10;99.90;;;;;;5032227;28;20042;-68
2021/12/18 00:31:25;;;;;;;7.90;4.70;;;8.10;99.90;;;;;;5031456;28;20121;-68
2021/12/18 00:33:51;;;;;;;8.23;4.47;;;8.10;99.90;;;;;;5032264;28;20034;-68
2021/12/18 00:36:17;;;;;;;13.05;4.93;;;8.10;99.90;;;;;;5031352;28;20045;-68
2021/12/18 00:38:43;;;;;;;9.40;4.40;;;8.10;99.90;;;;;;5031197;28;20088;-68
2021/12/18 00:41:26;;;;;;;7.47;4.40;;;8.10;99.90;;;;;;5032359;28;20069;-68
2021/12/18 00:44:02;;;;;;;;;;;8.10;99.90;;;;;;5030894;28;20394;-68
2021/12/18 00:46:36;;;;;;;7.47;4.15;;;8.10;99.90;;;;;;5032295;28;20304;-68
2021/12/18 00:49:04;;;;;;;6.95;4.28;;;8.10;99.90;;;;;;5032101;28;20044;-68
2021/12/18 00:51:30;;;;;;;7.22;4.00;;;8.10;99.90;;;;;;5032079;28;20184;-68
2021/12/18 00:53:56;;;;;;;4.18;3.08;;;8.10;99.90;;;;;;5030566;28;20573;-68
2021/12/18 00:56:22;;;;;;;4.47;3.15;;;8.10;99.90;;;;;;5032072;28;20186;-68
2021/12/18 00:58:49;;;;;;;6.07;2.80;;;8.10;99.90;;;;;;5032073;28;20053;-68
2021/12/18 01:01:15;;;;;;;7.00;2.75;;;8.10;99.90;;;;;;5028510;28;20042;-68
2021/12/18 01:03:42;;;;;;;4.30;2.60;;;8.10;99.90;;;;;;5029857;28;20042;-68
2021/12/18 01:06:09;;;;;;;3.88;2.60;;;8.00;99.90;;;;;;5032107;28;20049;-68
2021/12/18 01:08:34;;;;;;;4.63;2.70;;;8.10;99.90;;;;;;5030953;28;20045;-68
2021/12/18 01:14:04;;;;;;;8.75;3.47;;;8.00;99.90;;;;;;5030740;28;20191;-68
2021/12/18 01:16:41;;;;;;;4.72;3.10;;;8.00;99.90;;;;;;5031866;28;20071;-67
2021/12/18 01:24:36;;;;;;;3.72;2.60;;;8.00;99.90;;;;;;5036058;28;20620;-68
2021/12/18 01:27:01;;;;;;;4.18;3.10;;;8.00;99.90;;;;;;5035176;28;20076;-68
2021/12/18 01:29:27;;;;;;;3.60;2.65;;;8.00;99.90;;;;;;5036013;28;20045;-68
2021/12/18 01:31:52;;;;;;;5.18;2.47;;;8.00;99.90;;;;;;5037914;28;20045;-68
2021/12/18 01:34:18;;;;;;;2.58;2.20;;;8.00;99.90;;;;;;5037025;28;20073;-68
2021/12/18 01:36:44;;;;;;;4.47;2.42;;;8.00;99.90;;;;;;5032429;28;20045;-68
2021/12/18 01:39:09;;;;;;;4.30;2.72;;;8.00;99.90;;;;;;5047674;28;20179;-68
2021/12/18 01:41:52;;;;;;;3.85;2.60;;;8.00;99.90;;;;;;5032582;28;20064;-68
2021/12/18 01:51:15;;;;;;;3.60;2.70;;;8.00;99.90;;;;;;5037530;28;20053;-68
2021/12/18 01:52:40;;;;;;;3.67;2.35;;;8.00;99.90;;;;;;5038455;28;20042;-68
2021/12/18 01:55:07;;;;;;;5.22;2.28;;;7.90;99.90;;;;;;5039894;28;20049;-68
2021/12/18 01:57:33;;;;;;;3.95;2.88;;;7.90;99.90;;;;;;5038935;28;20033;-68
2021/12/18 01:59:58;;;;;;;5.15;3.00;;;7.90;99.90;;;;;;5036062;28;20042;-68
2021/12/18 02:02:26;;;;;;;7.38;3.08;;;7.90;99.90;;;;;;5034482;28;20061;-68
2021/12/18 02:04:52;;;;;;;4.13;2.83;;;7.90;99.90;;;;;;5035507;28;20030;-68
2021/12/18 02:07:18;;;;;;;4.38;3.00;;;7.90;99.90;;;;;;5035575;28;20168;-68
2021/12/18 02:10:00;;;;;;;4.68;3.22;;;7.90;99.90;;;;;;5034305;28;20041;-68
2021/12/18 02:12:37;;;;;;;3.57;2.47;;;7.90;99.90;;;;;;5034152;28;20037;-67
2021/12/18 02:23:00;;;;;;;5.07;2.65;;;7.80;99.90;;;;;;5033402;28;20077;-68
2021/12/18 02:25:26;;;;;;;4.15;2.92;;;7.80;99.90;;;;;;5017018;28;20461;-67
2021/12/18 02:27:52;;;;;;;3.85;2.63;;;7.80;99.90;;;;;;5034376;28;20589;-68
2021/12/18 02:30:21;;;;;;;4.60;2.60;;;7.80;99.90;;;;;;5034889;28;20073;-68
2021/12/18 02:32:48;;;;;;;3.75;2.42;;;7.80;99.90;;;;;;5033267;28;20092;-68
2021/12/18 02:35:31;;;;;;;4.80;3.00;;;7.80;99.90;;;;;;5016921;28;20038;-68
2021/12/18 02:38:11;;;;;;;4.72;2.63;;;7.80;99.90;;;;;;5033107;28;20528;-67
2021/12/18 02:43:19;;;;;;;3.20;2.25;;;7.70;99.90;;;;;;5034282;28;20076;-68
2021/12/18 02:45:44;;;;;;;2.78;2.28;;;7.70;99.90;;;;;;5033283;28;20033;-68
2021/12/18 02:48:10;;;;;;;4.03;2.65;;;7.70;99.90;;;;;;5032956;28;20068;-68
2021/12/18 02:50:39;;;;;;;2.75;2.10;;;7.70;99.90;;;;;;5033289;28;20045;-68
2021/12/18 02:53:08;;;;;;;3.67;2.28;;;7.70;99.90;;;;;;5033724;28;20117;-68
2021/12/18 02:55:34;;;;;;;3.60;2.60;;;7.70;99.90;;;;;;5032826;28;20041;-68
2021/12/18 02:57:59;;;;;;;3.08;2.05;;;7.70;99.90;;;;;;5034158;28;20049;-68
2021/12/18 03:00:27;;;;;;;3.33;2.17;;;7.70;99.90;;;;;;5032710;28;20084;-68
2021/12/18 03:02:53;;;;;;;5.80;2.10;;;7.70;99.90;;;;;;5033655;28;20433;-68
2021/12/18 03:05:25;;;;;;;2.33;1.83;;;7.70;99.90;;;;;;5032772;28;20048;-68
2021/12/18 03:07:58;;;;;;;3.35;2.05;;;7.70;99.90;;;;;;5031805;28;20046;-68
2021/12/18 03:22:32;;;;;;;3.10;2.00;;;7.60;99.90;;;;;;4975740;28;20055;-68
2021/12/18 03:24:43;;;;;;;6.63;1.95;;;7.60;99.90;;;;;;5034792;28;20103;-68
2021/12/18 03:27:08;;;;;;;3.20;2.03;;;7.50;99.90;;;;;;5036785;28;20049;-68
2021/12/18 03:29:34;;;;;;;3.15;2.00;;;7.50;99.90;;;;;;5037361;28;20493;-68
2021/12/18 03:32:00;;;;;;;3.17;2.17;;;7.50;99.90;;;;;;5038727;28;20033;-68
2021/12/18 03:34:26;;;;;;;2.95;1.88;;;7.50;99.90;;;;;;5035719;28;20037;-68
2021/12/18 03:36:52;;;;;;;3.65;2.10;;;7.50;99.90;;;;;;5033860;28;20044;-68
2021/12/18 03:39:17;;;;;;;3.28;2.00;;;7.50;99.90;;;;;;5032073;28;20048;-68
2021/12/18 03:41:44;;;;;;;2.55;1.75;;;7.50;99.90;;;;;;5032089;28;20037;-67
2021/12/18 03:44:10;;;;;;;3.25;1.67;;;7.50;99.90;;;;;;5033309;28;20064;-68
2021/12/18 03:46:35;;;;;;;2.38;1.88;;;7.60;99.90;;;;;;5015759;28;20041;-68
2021/12/18 03:49:01;;;;;;;3.25;1.55;;;7.60;99.90;;;;;;5033462;28;20095;-68
2021/12/18 03:51:27;;;;;;;2.30;1.77;;;7.50;99.90;;;;;;5032195;28;20053;-68
2021/12/18 03:53:52;;;;;;;1.95;1.70;;;7.50;99.90;;;;;;5032914;28;20037;-68
2021/12/18 03:56:19;;;;;;;2.22;1.77;;;7.50;99.90;;;;;;5033078;28;20044;-68
2021/12/18 03:58:44;;;;;;;6.15;1.60;;;7.50;99.90;;;;;;5033192;28;20091;-68
2021/12/18 04:01:10;;;;;;;2.35;1.80;;;7.40;99.90;;;;;;5033366;28;20486;-68
2021/12/18 04:03:35;;;;;;;2.72;1.75;;;7.40;99.90;;;;;;5032909;28;20055;-68
2021/12/18 04:06:01;;;;;;;2.03;1.70;;;7.40;99.90;;;;;;5031626;28;20033;-68
2021/12/18 04:08:26;;;;;;;1.95;1.58;;;7.30;99.90;;;;;;5032841;28;20041;-68
2021/12/18 04:10:52;;;;;;;2.17;1.55;;;7.30;99.90;;;;;;5032864;28;20037;-68
2021/12/18 04:13:17;;;;;;;2.45;1.50;;;7.30;99.90;;;;;;5032310;28;20118;-68
2021/12/18 04:15:43;;;;;;;2.30;1.80;;;7.30;99.90;;;;;;5032660;28;20048;-68
2021/12/18 04:18:09;;;;;;;2.13;1.50;;;7.20;99.90;;;;;;5031272;28;20045;-68
2021/12/18 04:20:34;;;;;;;2.75;1.85;;;7.20;99.90;;;;;;5031284;28;20075;-68
2021/12/18 04:23:00;;;;;;;1.85;1.48;;;7.20;99.90;;;;;;5032281;28;20064;-68
2021/12/18 04:25:25;;;;;;;1.58;1.45;;;7.20;99.90;;;;;;5031158;28;20546;-68
2021/12/18 04:27:51;;;;;;;2.30;1.63;;;7.20;99.90;;;;;;5032148;28;20478;-68
2021/12/18 04:30:18;;;;;;;1.52;1.42;;;7.20;99.90;;;;;;5032836;28;20087;-68
2021/12/18 04:32:44;;;;;;;1.95;1.73;;;7.10;99.90;;;;;;5032233;28;20069;-68
2021/12/18 04:35:09;;;;;;;1.70;1.50;;;7.10;99.90;;;;;;5031327;28;20548;-68
2021/12/18 04:37:35;;;;;;;2.10;1.50;;;7.10;99.90;;;;;;5031065;28;20128;-68
2021/12/18 04:40:01;;;;;;;2.03;1.60;;;7.10;99.90;;;;;;5032063;28;20041;-68
2021/12/18 04:42:27;;;;;;;2.97;1.98;;;7.20;99.90;;;;;;5030575;28;20049;-68
2021/12/18 04:44:52;;;;;;;3.92;1.77;;;7.10;99.90;;;;;;5032318;28;20394;-68
2021/12/18 04:47:18;;;;;;;8.45;1.80;;;7.10;99.90;;;;;;5030865;28;20489;-68
2021/12/18 04:49:44;;;;;;;4.68;2.13;;;7.20;99.90;;;;;;5032189;28;20045;-68
2021/12/18 04:52:09;;;;;;;9.40;2.13;;;7.20;99.90;;;;;;5030660;28;20121;-68
2021/12/18 04:54:35;;;;;;;2.33;1.50;;;7.20;99.90;;;;;;5032044;28;20069;-68
2021/12/18 04:57:01;;;;;;;2.88;1.73;;;7.20;99.90;;;;;;5030669;28;20049;-68
2021/12/18 04:59:27;;;;;;;1.95;1.50;;;7.10;99.90;;;;;;5030621;28;20052;-68
2021/12/18 05:01:53;;;;;;;2.25;1.60;;;7.20;99.90;;;;;;5047162;28;20037;-68
2021/12/18 05:04:20;;;;;;;2.13;1.35;;;7.20;99.90;;;;;;5031915;28;20451;-68
2021/12/18 05:06:47;;;;;;;2.33;1.42;;;7.20;99.90;;;;;;5030779;28;20107;-68
2021/12/18 05:09:15;;;;;;;4.55;1.60;;;7.20;99.90;;;;;;5030531;28;20042;-68
2021/12/18 05:11:41;;;;;;;4.00;1.75;;;7.20;99.90;;;;;;5030478;28;20045;-68
2021/12/18 05:14:07;;;;;;;2.30;1.63;;;7.20;99.90;;;;;;5031937;28;20049;-67
2021/12/18 05:16:33;;;;;;;2.28;1.60;;;7.20;99.90;;;;;;5031585;28;20453;-68
2021/12/18 05:18:58;;;;;;;3.20;1.65;;;7.10;99.90;;;;;;5031741;28;20037;-68
2021/12/18 05:21:24;;;;;;;3.40;1.40;;;7.10;99.90;;;;;;5031669;28;20413;-68
2021/12/18 05:23:50;;;;;;;3.45;1.73;;;7.00;99.90;;;;;;5031639;28;20497;-68
2021/12/18 05:26:16;;;;;;;2.97;1.60;;;7.10;99.90;;;;;;5031600;28;20042;-68
2021/12/18 05:28:41;;;;;;;1.90;1.30;;;7.00;99.90;;;;;;5031568;28;20498;-68
2021/12/18 05:31:09;;;;;;;2.72;1.38;;;7.10;99.90;;;;;;5032338;28;20092;-68
2021/12/18 05:33:36;;;;;;;2.88;1.50;;;7.10;99.90;;;;;;5035440;28;20049;-68
2021/12/18 05:36:03;;;;;;;3.17;1.75;;;7.10;99.90;;;;;;5035724;28;20601;-68
2021/12/18 05:38:29;;;;;;;2.97;1.67;;;7.10;99.90;;;;;;5035779;28;20041;-68
2021/12/18 05:40:54;;;;;;;2.53;1.70;;;7.10;99.90;;;;;;5017603;28;20539;-68
2021/12/18 05:43:20;;;;;;;4.35;1.88;;;7.10;99.90;;;;;;5035428;28;20513;-68
2021/12/18 05:45:46;;;;;;;8.23;1.88;;;7.10;99.90;;;;;;5035405;28;20406;-68
2021/12/18 05:48:12;;;;;;;3.72;1.95;;;7.10;99.90;;;;;;5035210;28;20164;-68
2021/12/18 05:50:38;;;;;;;5.38;2.17;;;7.10;99.90;;;;;;5034026;28;20538;-68
2021/12/18 05:53:03;;;;;;;2.85;1.65;;;7.10;99.90;;;;;;5033862;28;20430;-68
2021/12/18 05:55:30;;;;;;;3.63;2.13;;;7.10;99.90;;;;;;5034126;28;20076;-68
2021/12/18 05:57:56;;;;;;;2.78;1.98;;;7.10;99.90;;;;;;5035250;28;20041;-67
2021/12/18 06:00:22;;;;;;;5.20;2.17;;;7.10;99.90;;;;;;5033886;28;20045;-68
2021/12/18 06:02:48;;;;;;;4.80;2.58;;;7.20;99.90;;;;;;5033559;28;20087;-68
2021/12/18 06:05:14;;;;;;;3.25;2.10;;;7.10;99.90;;;;;;5033763;28;20037;-68
2021/12/18 06:07:53;;;;;;;5.20;2.28;;;7.10;99.90;;;;;;5034021;28;20521;-68
2021/12/18 06:10:21;;;;;;;3.83;2.20;;;7.20;99.90;;;;;;5033711;28;20045;-68
2021/12/18 06:12:47;;;;;;;4.78;2.20;;;7.20;99.90;;;;;;5034633;28;20056;-68
2021/12/18 06:15:12;;;;;;;2.95;2.20;;;7.20;99.90;;;;;;5034279;28;20037;-68
2021/12/18 06:17:38;;;;;;;5.45;1.98;;;7.10;99.90;;;;;;5033853;28;20095;-68
2021/12/18 06:20:04;;;;;;;3.78;1.85;;;7.20;99.90;;;;;;5033504;28;20044;-68
2021/12/18 06:22:29;;;;;;;5.35;2.40;;;7.20;99.90;;;;;;5033467;28;20053;-68
2021/12/18 06:24:55;;;;;;;3.17;1.92;;;7.10;99.90;;;;;;5033368;28;20049;-68
2021/12/18 06:27:20;;;;;;;5.05;2.53;;;7.20;99.90;;;;;;5033149;28;20402;-68
2021/12/18 06:29:47;;;;;;;5.65;2.90;;;7.20;99.90;;;;;;5033600;28;20421;-68
2021/12/18 06:32:13;;;;;;;5.20;2.30;;;7.20;99.90;;;;;;5034455;28;20049;-68
2021/12/18 06:34:38;;;;;;;5.70;2.45;;;7.20;99.90;;;;;;5033577;28;20068;-68
2021/12/18 06:37:04;;;;;;;3.70;2.65;;;7.20;99.90;;;;;;5034605;28;20040;-68
2021/12/18 06:39:30;;;;;;;4.97;2.40;;;7.20;99.90;;;;;;5033480;28;20132;-68
2021/12/18 06:41:55;;;;;;;6.75;2.75;;;7.20;99.90;;;;;;5032903;28;20063;-68
2021/12/18 06:44:21;;;;;;;7.05;2.75;;;7.20;99.90;;;;;;5033460;28;20402;-68
2021/12/18 06:46:46;;;;;;;4.30;2.35;;;7.20;99.90;;;;;;5034619;28;20077;-68
2021/12/18 06:49:12;;;;;;;5.07;2.17;;;7.20;99.90;;;;;;5034604;28;20037;-68
2021/12/18 06:51:38;;;;;;;4.30;2.55;;;7.20;99.90;;;;;;5031842;28;20040;-68
2021/12/18 06:54:04;;;;;;;5.13;3.08;;;7.20;99.90;;;;;;5013115;28;20414;-68
2021/12/18 06:56:30;;;;;;;4.53;2.42;;;7.20;99.90;;;;;;5014344;28;20041;-68
2021/12/18 06:58:55;;;;;;;5.07;2.20;;;7.20;99.90;;;;;;5013223;28;20491;-68
2021/12/18 07:01:21;;;;;;;7.22;3.08;;;7.20;99.90;;;;;;5014570;28;20403;-68
2021/12/18 07:03:46;;;;;;;5.75;3.30;;;7.20;99.90;;;;;;5012999;28;20445;-67
2021/12/18 07:06:12;;;;;;;5.07;2.30;;;7.20;99.90;;;;;;5014583;28;20038;-68
2021/12/18 07:08:37;;;;;;;5.03;2.58;;;7.20;99.90;;;;;;5014211;28;20049;-68
2021/12/18 07:11:06;;;;;;;5.30;2.50;;;7.20;99.90;;;;;;5014300;28;20042;-68
2021/12/18 07:13:31;;;;;;;5.18;2.58;;;7.20;99.90;;;;;;4996728;28;20417;-68
2021/12/18 07:15:57;;;;;;;3.70;2.30;;;7.30;99.90;;;;;;5013742;28;20129;-68
2021/12/18 07:18:25;;;;;;;4.57;2.58;;;7.20;99.90;;;;;;5014291;28;20471;-68
2021/12/18 07:20:52;;;;;;;6.10;3.20;;;7.20;99.90;;;;;;5012787;28;20128;-68
2021/12/18 07:23:18;;;;;;;5.25;3.15;;;7.20;99.90;;;;;;5013674;28;20078;-68
2021/12/18 07:25:44;;;;;;;6.45;3.47;;;7.20;99.90;;;;;;5014371;28;20069;-67
2021/12/18 07:28:09;;;;;;;7.85;3.60;;;7.20;99.90;;;;;;5013749;28;20100;-67
2021/12/18 07:30:35;;;;;;;5.78;3.35;;;7.20;99.90;;;;;;5013899;28;20478;-68
2021/12/18 07:33:01;;;;;;;6.53;3.50;;;7.20;99.90;;;;;;5013692;28;20038;-68
2021/12/18 07:35:27;;;;;;;3.90;2.70;;;7.20;99.90;;;;;;5013838;28;20127;-68
2021/12/18 07:37:52;;;;;;;6.75;3.30;;;7.30;99.90;;;;;;5013647;28;20464;-68
2021/12/18 07:40:18;;;;;;;12.10;3.60;;;7.30;99.90;;;;;;5012468;28;20050;-68
2021/12/18 07:42:43;;;;;;;7.63;3.28;;;7.30;99.90;;;;;;5013626;28;20418;-68
2021/12/18 07:45:10;;;;;;;6.80;3.88;;;7.30;99.90;;;;;;5012285;28;20125;-68
2021/12/18 07:47:36;;;;;;;8.02;3.58;;;7.30;99.90;;;;;;5012283;28;20042;-68
2021/12/18 07:50:07;;;;;;;8.25;4.53;;;7.30;99.90;;;;;;5011739;28;20060;-68
2021/12/18 07:52:33;;;;;;;7.63;4.38;;;7.30;99.90;;;;;;5010003;28;20041;-68
2021/12/18 07:54:58;;;;;;;8.65;5.25;;;7.30;99.90;;;;;;5009843;28;20406;-67
2021/12/18 07:57:24;;;;;;;11.70;6.50;;;7.30;99.90;;;;;;5010515;28;20045;-68
2021/12/18 07:59:49;;;;;;;9.50;5.28;;;7.30;99.90;;;;;;5012684;28;20049;-68
2021/12/18 08:02:15;;;;;;;8.68;5.07;;;7.30;99.90;;;;;;5012980;28;20037;-68
2021/12/18 08:04:40;;;;;;;9.75;5.57;;;7.30;99.90;;;;;;5011431;28;20101;-68
2021/12/18 08:07:06;;;;;;;8.80;4.93;;;7.30;99.90;;;;;;4994882;28;20527;-68
2021/12/18 08:09:32;;;;;;;9.15;4.80;;;7.30;99.90;;;;;;5012367;28;20532;-68
2021/12/18 08:11:57;;;;;;;7.47;4.53;;;7.40;99.90;;;;;;5011900;28;20056;-68
2021/12/18 08:14:23;;;;;;;7.28;4.05;;;7.30;99.90;;;;;;5012100;28;20037;-68
2021/12/18 08:16:50;;;;;;;7.55;3.95;;;7.40;99.90;;;;;;5012564;28;20490;-68
2021/12/18 08:19:16;;;;;;;7.43;4.55;;;7.40;99.90;;;;;;5011808;28;20136;-68
2021/12/18 08:21:41;;;;;;;6.45;3.83;;;7.40;99.90;;;;;;5011437;28;20124;-68
2021/12/18 08:24:07;;;;;;;6.25;3.95;;;7.40;99.90;;;;;;5011887;28;20387;-68
2021/12/18 08:26:32;;;;;;;7.65;3.53;;;7.40;99.90;;;;;;4995270;28;20061;-68
2021/12/18 08:28:58;;;;;;;7.93;3.38;;;7.40;99.90;;;;;;5012994;28;20092;-68
2021/12/18 08:31:24;;;;;;;5.70;3.15;;;7.40;99.90;;;;;;5011563;28;20477;-68
2021/12/18 08:33:49;;;;;;;6.88;3.88;;;7.40;99.90;;;;;;5012329;28;20457;-68
2021/12/18 08:36:15;;;;;;;11.10;4.45;;;7.40;99.90;;;;;;5012519;28;20041;-68
2021/12/18 08:38:41;;;;;;;7.22;3.28;;;7.50;99.90;;;;;;5012671;28;20037;-68
2021/12/18 08:41:06;;;;;;;10.15;3.78;;;7.40;99.90;;;;;;5011281;28;20129;-68
2021/12/18 08:43:32;;;;;;;7.35;3.45;;;7.40;99.90;;;;;;5012280;28;20483;-68
2021/12/18 08:45:57;;;;;;;7.40;3.90;;;7.50;99.90;;;;;;5012523;28;20490;-68
2021/12/18 08:48:23;;;;;;;8.07;3.75;;;7.50;99.90;;;;;;5012429;28;20034;-68
2021/12/18 08:50:49;;;;;;;6.30;3.78;;;7.50;99.90;;;;;;5012679;28;20155;-68
2021/12/18 08:53:14;;;;;;;11.15;4.05;;;7.50;99.90;;;;;;5012475;28;20034;-69
2021/12/18 08:55:40;;;;;;;8.85;3.75;;;7.50;99.90;;;;;;5011327;28;20131;-71
2021/12/18 08:58:05;;;;;;;9.95;4.40;;;7.60;99.90;;;;;;5011189;28;20621;-71
2021/12/18 09:00:32;;;;;;;8.18;3.60;;;7.90;99.90;;;;;;5011182;28;20461;-71
2021/12/18 09:02:59;;;;;;;8.93;3.80;;;7.70;99.90;;;;;;5010957;28;20041;-71
2021/12/18 09:05:25;;;;;;;9.85;4.45;;;7.70;99.90;;;;;;5010539;28;20052;-71
2021/12/18 09:07:51;;;;;;;9.35;4.57;;;7.90;99.90;;;;;;5011033;28;20041;-70
2021/12/18 09:10:17;;;;;;;9.73;4.70;;;7.90;99.90;;;;;;5012356;28;20111;-71
2021/12/18 09:12:43;;;;;;;8.68;5.13;;;7.80;99.90;;;;;;4994110;28;20056;-69
2021/12/18 09:15:09;;;;;;;11.38;5.38;;;7.80;99.90;;;;;;5011908;28;20044;-69
2021/12/18 09:17:35;;;;;;;9.77;4.90;;;7.70;99.90;;;;;;5010865;28;20421;-69
2021/12/18 09:20:01;;;;;;;11.23;5.28;;;7.70;99.90;;;;;;5010836;28;20130;-69
2021/12/18 09:22:26;;;;;;;10.60;4.97;;;7.70;99.90;;;;;;5011923;28;20128;-69
2021/12/18 09:24:52;;;;;;;11.52;4.40;;;7.70;99.90;;;;;;5012132;28;20073;-69
2021/12/18 09:27:19;;;;;;;11.77;5.30;;;7.70;99.90;;;;;;5011822;28;20488;-69
2021/12/18 09:29:45;;;;;;;10.70;4.95;;;7.70;99.90;;;;;;5010612;28;20046;-69
2021/12/18 09:32:11;;;;;;;9.50;4.05;;;7.70;99.90;;;;;;5010361;28;20038;-69
2021/12/18 09:34:36;;;;;;;12.68;4.90;;;7.70;99.90;;;;;;5011585;28;20567;-68
2021/12/18 09:37:02;;;;;;;10.63;5.18;;;7.80;99.90;;;;;;5011924;28;20092;-69
2021/12/18 09:39:28;;;;;;;12.32;4.80;;;7.80;99.90;;;;;;5010526;28;20103;-68
2021/12/18 09:41:54;;;;;;;12.85;5.13;;;7.80;99.90;;;;;;5011789;28;20658;-68
2021/12/18 09:44:24;;;;;;;10.10;4.68;;;7.80;99.90;;;;;;5012025;28;20406;-69
2021/12/18 09:46:51;;;;;;;10.63;4.78;;;7.80;99.90;;;;;;5010917;28;20410;-69
2021/12/18 09:49:17;;;;;;;12.32;4.75;;;7.80;99.90;;;;;;5011646;28;20038;-69
2021/12/18 09:51:43;;;;;;;14.63;5.60;;;7.80;99.90;;;;;;5011318;28;20072;-69
2021/12/18 09:54:09;;;;;;;10.15;5.40;;;7.90;99.90;;;;;;5010805;28;20521;-69
2021/12/18 09:56:34;;;;;;;13.02;6.13;;;7.90;99.90;;;;;;4994135;28;20042;-69
2021/12/18 09:59:00;;;;;;;9.70;5.43;;;7.90;99.90;;;;;;5010318;28;20053;-69
2021/12/18 10:01:26;;;;;;;9.30;5.03;;;7.90;99.90;;;;;;5010532;28;20041;-69
2021/12/18 10:03:54;;;;;;;17.55;5.32;;;7.90;99.90;;;;;;4993744;28;20038;-68
2021/12/18 10:06:36;;;;;;;12.32;5.10;;;7.90;99.90;;;;;;5010471;28;20421;-69
2021/12/18 10:09:17;;;;;;;13.15;5.10;;;7.90;99.90;;;;;;5010674;28;20049;-69
2021/12/18 10:11:49;;;;;;;12.60;5.03;;;7.90;99.90;;;;;;5011226;28;20054;-69
2021/12/18 10:14:16;;;;;;;11.70;5.27;;;8.00;99.90;;;;;;5010566;28;20046;-69
2021/12/18 10:16:47;;;;;;;14.65;5.13;;;8.00;99.90;;;;;;5012548;28;20096;-69
2021/12/18 10:19:30;;;;;;;15.73;6.35;;;8.00;99.90;;;;;;5014933;28;20041;-69
2021/12/18 10:22:08;;;;;;;10.35;5.25;;;8.00;99.90;;;;;;5014720;28;20042;-69
2021/12/18 10:24:41;;;;;;;13.27;5.25;;;8.10;99.90;;;;;;5014998;28;20494;-69
2021/12/18 10:27:18;;;;;;;9.07;4.43;;;8.10;99.90;;;;;;5013418;28;20038;-69
2021/12/18 10:29:44;;;;;;;12.40;4.80;;;8.20;99.90;;;;;;5015120;28;20145;-69
2021/12/18 10:32:13;;;;;;;11.73;3.65;;;8.20;99.90;;;;;;5013203;28;20076;-69
2021/12/18 10:34:41;;;;;;;11.57;3.47;;;8.30;99.90;;;;;;4996806;28;20046;-70
2021/12/18 10:37:14;;;;;;;9.43;3.40;;;8.50;99.90;;;;;;4996834;28;20046;-70
2021/12/18 10:39:45;;;;;;;;;;;8.50;99.90;;;;;;5013784;28;20499;-68
2021/12/18 10:42:16;;;;;;;8.02;2.88;;;8.50;99.90;;;;;;5022678;28;19963;-68
2021/12/18 10:44:59;;;;;;;4.20;2.05;;;8.50;99.90;;;;;;5034248;28;20501;-68
2021/12/18 10:47:26;;;;;;;5.65;2.65;;;8.60;99.90;;;;;;5034103;28;20378;-67
2021/12/18 10:49:52;;;;;;;6.18;2.30;;;8.60;99.90;;;;;;5034077;28;20060;-67
2021/12/18 10:52:34;;;;;;;8.05;2.95;;;8.70;99.90;;;;;;5033758;28;20041;-67
2021/12/18 10:55:07;;;;;;;6.03;2.97;;;8.70;99.90;;;;;;5034211;28;20042;-67
2021/12/18 10:57:32;;;;;;;8.93;2.63;;;8.70;99.90;;;;;;5032983;28;20393;-67
2021/12/18 10:59:58;;;;;;;7.38;2.95;;;8.80;99.90;;;;;;5032841;28;20046;-67
2021/12/18 11:02:27;;;;;;;13.02;2.78;;;8.70;99.90;;;;;;5033845;28;20038;-67
2021/12/18 11:05:11;;;;;;;6.38;2.95;;;8.70;99.90;;;;;;5032933;28;20441;-67
2021/12/18 11:07:42;;;;;;;7.10;2.60;;;8.80;99.90;;;;;;5033812;28;20041;-69
2021/12/18 11:10:42;;;;;;;4.75;2.72;;;8.80;99.90;;;;;;5032561;28;20045;-68
2021/12/18 11:15:54;;;;;;;9.45;2.42;;;8.80;99.90;;;;;;5033867;28;20053;-68
2021/12/18 11:18:20;;;;;;;6.00;2.50;;;8.80;99.90;;;;;;5032273;28;20513;-68
2021/12/18 11:20:52;;;;;;;14.80;4.03;;;8.90;99.90;;;;;;5033649;28;20049;-68
2021/12/18 11:23:39;;;;;;;7.23;2.50;;;8.80;99.90;;;;;;5032272;28;20052;-67
2021/12/18 11:26:07;;;;;;;10.02;2.85;;;8.90;99.90;;;;;;5033710;28;20486;-68
2021/12/18 11:28:35;;;;;;;6.68;2.60;;;9.00;99.90;;;;;;5032745;28;20037;-67
2021/12/18 11:31:02;;;;;;;7.70;2.88;;;9.10;99.90;;;;;;5032241;28;20049;-68
2021/12/18 11:33:30;;;;;;;6.85;2.72;;;9.10;99.90;;;;;;5031779;28;20045;-68
2021/12/18 11:35:57;;;;;;;10.50;2.72;;;9.10;99.90;;;;;;5032147;28;20119;-67
2021/12/18 11:38:24;;;;;;;4.70;2.80;;;9.10;99.90;;;;;;5032217;28;20434;-68
2021/12/18 11:40:49;;;;;;;13.30;2.88;;;9.10;99.90;;;;;;5031981;28;20121;-68
2021/12/18 11:43:35;;;;;;;8.20;3.30;;;9.10;99.90;;;;;;5032037;28;20049;-69
2021/12/18 11:46:01;;;;;;;6.55;3.10;;;9.10;99.90;;;;;;5032479;28;20132;-67
2021/12/18 11:48:27;;;;;;;8.98;3.50;;;9.20;99.90;;;;;;5033647;28;20069;-67
2021/12/18 11:50:53;;;;;;;4.30;2.83;;;9.20;99.90;;;;;;5031883;28;20079;-68
2021/12/18 11:53:30;;;;;;;5.18;2.80;;;9.20;99.90;;;;;;5033266;28;20049;-68
2021/12/18 11:56:00;;;;;;;5.97;3.10;;;9.10;99.90;;;;;;5031773;28;20042;-68
2021/12/18 11:58:32;;;;;;;8.20;3.47;;;9.10;99.90;;;;;;5032978;28;20107;-68
2021/12/18 12:01:13;;;;;;;6.93;3.38;;;9.20;99.90;;;;;;5032956;28;20044;-68
2021/12/18 12:03:43;;;;;;;6.60;3.70;;;9.30;99.90;;;;;;5032632;28;20044;-67
2021/12/18 12:06:35;;;;;;;8.50;4.18;;;9.40;99.90;;;;;;5031441;28;20037;-67
2021/12/18 12:09:44;;;;;;;17.00;3.85;;;9.40;99.90;;;;;;5014963;28;20052;-67
2021/12/18 12:12:13;;;;;;;12.90;4.65;;;9.50;99.90;;;;;;5032412;28;20041;-67
2021/12/18 12:14:43;;;;;;;9.05;4.03;;;9.50;99.90;;;;;;5031548;28;20398;-67
2021/12/18 12:17:14;;;;;;;14.38;4.88;;;9.60;99.90;;;;;;5032305;28;20034;-67
2021/12/18 12:19:43;;;;;;;9.05;4.57;;;9.60;99.90;;;;;;5032556;28;20044;-67
2021/12/18 12:22:30;;;;;;;13.90;4.45;;;9.70;99.90;;;;;;5032102;28;20064;-68
2021/12/18 12:24:58;;;;;;;13.77;4.65;;;9.80;99.90;;;;;;5032427;28;20053;-67
2021/12/18 12:27:38;;;;;;;8.82;4.32;;;9.80;99.90;;;;;;5030987;28;20045;-67
2021/12/18 12:30:28;;;;;;;7.95;3.67;;;9.80;99.90;;;;;;5031290;28;20041;-67
2021/12/18 12:33:03;;;;;;;9.25;3.50;;;9.90;99.90;;;;;;5030134;28;20081;-68
2021/12/18 12:35:29;;;;;;;6.43;4.00;;;9.70;99.90;;;;;;5032270;28;20563;-68
2021/12/18 12:37:56;;;;;;;9.15;4.80;;;9.70;99.90;;;;;;5032306;28;20046;-68
2021/12/18 12:40:31;;;;;;;8.00;4.13;;;9.80;99.90;;;;;;5030015;28;20505;-69
2021/12/18 12:43:18;;;;;;;15.38;4.78;;;9.80;99.90;;;;;;5031795;28;20045;-68
2021/12/18 12:45:47;;;;;;;8.77;3.70;;;9.80;99.90;;;;;;5014516;28;20046;-68
2021/12/18 12:48:13;;;;;;;14.52;5.43;;;9.80;99.90;;;;;;5032150;28;20034;-70
2021/12/18 12:50:39;;;;;;;12.65;4.70;;;9.80;99.90;;;;;;5032181;28;20037;-69
2021/12/18 12:53:07;;;;;;;11.20;4.10;;;9.80;99.90;;;;;;5030427;28;20045;-69
2021/12/18 12:55:48;;;;;;;9.93;3.70;;;9.80;99.90;;;;;;5030738;28;20052;-68
2021/12/18 12:58:20;;;;;;;16.08;4.63;;;9.70;99.90;;;;;;5031768;28;20541;-68
2021/12/18 13:00:52;;;;;;;11.68;4.15;;;9.90;99.90;;;;;;5014141;28;20073;-68
2021/12/18 13:03:23;;;;;;;10.97;4.77;;;9.80;99.90;;;;;;5031701;28;20083;-68
2021/12/18 13:05:55;;;;;;;19.95;5.40;;;9.90;99.90;;;;;;5030877;28;20329;-68
2021/12/18 13:08:22;;;;;;;14.10;4.97;;;9.90;99.90;;;;;;5031821;28;20125;-67
2021/12/18 13:10:51;;;;;;;14.52;4.55;;;9.80;99.90;;;;;;5031957;28;20064;-68
2021/12/18 13:13:19;;;;;;;10.80;4.65;;;9.80;99.90;;;;;;5030403;28;20094;-68
2021/12/18 13:15:47;;;;;;;17.40;5.07;;;9.90;99.90;;;;;;5032058;28;20045;-68
2021/12/18 13:18:13;;;;;;;8.57;3.65;;;10.00;99.90;;;;;;5032591;28;20041;-68
2021/12/18 13:20:45;;;;;;;6.72;4.07;;;10.00;99.90;;;;;;5031967;28;20501;-68
2021/12/18 13:23:17;;;;;;;10.13;3.83;;;9.90;99.90;;;;;;5031054;28;20120;-67
2021/12/18 13:25:54;;;;;;;6.78;3.08;;;10.00;99.90;;;;;;5032015;28;20056;-68
2021/12/18 13:28:21;;;;;;;8.05;3.83;;;9.80;99.90;;;;;;5030667;28;20406;-68
2021/12/18 13:30:51;;;;;;;4.40;3.40;;;9.80;99.90;;;;;;5030579;28;20133;-69
2021/12/18 13:33:23;;;;;;;8.55;3.33;;;9.70;99.90;;;;;;5029605;28;20056;-70
2021/12/18 13:35:58;;;;;;;8.40;3.50;;;9.70;99.90;;;;;;5030409;28;20053;-69
2021/12/18 13:38:25;;;;;;;15.23;4.47;;;9.70;99.90;;;;;;5031749;28;20041;-68
2021/12/18 13:40:52;;;;;;;6.28;3.33;;;9.60;99.90;;;;;;5030323;28;20045;-67